Time;durP1;ratioP1;P1;durP2;ratioP2;P2;SDS_P1;SDS_P2;PMS_P1;PMS_P2;Temp;Humidity;BMP_temperature;BMP_pressure;BME280_temperature;BME280_humidity;BME280_pressure;Samples;Min_cycle;Max_cycle;Signal;HPM_P1;HPM_P2
2023/05/21 00:03:25;;;;;;;15.25;9.48;;;;;;;18.23;58.47;100145.28;10037899;29;20064;-71
2023/05/21 00:08:27;;;;;;;13.73;9.50;;;;;;;18.20;58.49;100138.41;10042213;29;20053;-70
2023/05/21 00:13:29;;;;;;;14.90;8.98;;;;;;;18.23;58.43;100135.22;10040421;29;20062;-70
2023/05/21 00:18:31;;;;;;;18.65;9.50;;;;;;;18.22;58.75;100138.19;10036157;29;20068;-70
2023/05/21 00:23:33;;;;;;;15.65;9.65;;;;;;;18.22;58.58;100138.19;10018216;29;20120;-70
2023/05/21 00:28:34;;;;;;;15.70;9.45;;;;;;;18.21;58.58;100123.75;10040563;29;20048;-70
2023/05/21 00:33:36;;;;;;;16.02;9.70;;;;;;;18.21;58.94;100133.81;10040621;29;20060;-70
2023/05/21 00:38:37;;;;;;;15.95;9.75;;;;;;;18.21;58.54;100121.03;10041435;29;20084;-70
2023/05/21 00:43:39;;;;;;;13.85;9.02;;;;;;;18.22;58.77;100116.41;10034072;29;20053;-70
2023/05/21 00:48:42;;;;;;;15.18;9.50;;;;;;;18.21;58.71;100109.31;10037854;29;20109;-70
2023/05/21 00:53:44;;;;;;;16.25;10.52;;;;;;;18.19;58.91;100100.56;10037335;29;20046;-70
2023/05/21 00:58:46;;;;;;;17.35;10.00;;;;;;;18.16;58.86;100101.03;10031728;29;20056;-71
2023/05/21 01:03:48;;;;;;;16.50;9.95;;;;;;;18.09;59.16;100094.84;10040281;29;20113;-70
2023/05/21 01:08:49;;;;;;;14.13;8.90;;;;;;;18.08;59.33;100090.47;10040314;29;20050;-70
2023/05/21 01:13:51;;;;;;;15.65;9.35;;;;;;;18.04;59.33;100098.25;10024989;29;20045;-70
2023/05/21 01:18:52;;;;;;;14.95;9.40;;;;;;;18.07;59.24;100088.78;10023277;29;20061;-71
2023/05/21 01:23:54;;;;;;;13.02;9.95;;;;;;;18.09;59.39;100081.22;10036561;29;20045;-71
2023/05/21 01:28:56;;;;;;;16.48;9.10;;;;;;;18.09;59.25;100075.78;10036637;29;20049;-70
2023/05/21 01:34:04;;;;;;;17.77;10.43;;;;;;;18.03;59.62;100067.50;10039405;29;20871;-70
2023/05/21 01:39:18;;;;;;;14.27;10.13;;;;;;;17.98;59.47;100064.66;10038504;29;20128;-69
2023/05/21 01:44:21;;;;;;;14.45;9.50;;;;;;;17.98;59.81;100063.84;10034476;29;20045;-70
2023/05/21 01:49:23;;;;;;;14.05;9.73;;;;;;;18.02;59.56;100063.13;10037818;29;20046;-70
2023/05/21 01:54:25;;;;;;;21.58;10.65;;;;;;;17.99;59.42;100063.59;10034859;29;20054;-71
2023/05/21 01:59:26;;;;;;;15.45;10.10;;;;;;;18.03;59.53;100064.78;10037330;29;20109;-71
2023/05/21 02:04:28;;;;;;;16.90;11.13;;;;;;;18.05;59.72;100059.13;10035301;29;20054;-70
2023/05/21 02:09:29;;;;;;;14.07;9.90;;;;;;;18.00;59.69;100058.97;10037339;29;20057;-74
2023/05/21 02:14:32;;;;;;;17.95;10.13;;;;;;;17.92;59.71;100051.97;10035658;29;20066;-72
2023/05/21 02:19:34;;;;;;;15.77;10.43;;;;;;;17.90;60.25;100054.09;10036970;29;20049;-73
2023/05/21 02:24:35;;;;;;;15.45;10.40;;;;;;;17.88;60.26;100056.22;10033068;29;20085;-73
2023/05/21 02:29:37;;;;;;;15.20;10.38;;;;;;;17.76;60.55;100060.78;10037570;29;20263;-74
2023/05/21 02:34:41;;;;;;;14.50;9.93;;;;;;;17.73;60.45;100050.34;10022677;29;20447;-73
2023/05/21 02:39:42;;;;;;;14.45;10.25;;;;;;;17.73;60.72;100053.91;10032860;29;20105;-73
2023/05/21 02:44:43;;;;;;;15.50;9.18;;;;;;;17.76;60.54;100053.44;10034521;29;20521;-73
2023/05/21 02:49:45;;;;;;;15.40;10.82;;;;;;;17.70;60.90;100043.50;10021615;29;20065;-73
2023/05/21 02:54:47;;;;;;;13.82;9.65;;;;;;;17.74;60.82;100044.69;10038107;29;20048;-73
2023/05/21 02:59:48;;;;;;;14.57;9.82;;;;;;;17.76;60.64;100045.28;10034755;29;20109;-73
2023/05/21 03:04:50;;;;;;;16.27;10.63;;;;;;;17.75;60.79;100046.34;10035243;29;20053;-74
2023/05/21 03:09:51;;;;;;;16.50;9.65;;;;;;;17.75;60.81;100040.91;10034113;29;20057;-73
2023/05/21 03:14:53;;;;;;;14.30;9.90;;;;;;;17.72;60.96;100040.53;10018538;29;20045;-73
2023/05/21 03:19:54;;;;;;;16.33;10.23;;;;;;;17.77;60.81;100043.38;10030697;29;20510;-74
2023/05/21 03:24:57;;;;;;;15.95;10.50;;;;;;;17.75;61.15;100040.91;10033197;29;20061;-74
2023/05/21 03:29:58;;;;;;;16.17;10.13;;;;;;;17.76;61.19;100041.75;10036442;29;20041;-75
2023/05/21 03:34:59;;;;;;;17.67;10.75;;;;;;;17.77;61.44;100037.94;10036793;29;20471;-75
2023/05/21 03:40:01;;;;;;;20.90;10.65;;;;;;;17.74;61.42;100033.81;10041852;29;20041;-74
2023/05/21 03:45:03;;;;;;;16.92;11.20;;;;;;;17.74;61.54;100039.25;10040106;29;20117;-74
2023/05/21 03:50:05;;;;;;;13.57;10.15;;;;;;;17.69;61.77;100039.09;10025239;29;20037;-74
2023/05/21 03:55:06;;;;;;;21.40;11.82;;;;;;;17.65;61.49;100035.19;10025927;29;20041;-75
2023/05/21 04:00:08;;;;;;;17.17;10.73;;;;;;;17.65;61.67;100040.63;10048106;29;20052;-74
2023/05/21 04:05:10;;;;;;;13.60;9.60;;;;;;;17.67;61.83;100043.94;10044878;29;20049;-73
2023/05/21 04:10:12;;;;;;;15.77;10.48;;;;;;;17.68;61.85;100045.59;10625686;23;20046;-72
2023/05/21 04:15:13;;;;;;;18.33;11.15;;;;;;;17.63;61.78;100049.03;10442492;23;20047;-73
2023/05/21 04:20:15;;;;;;;19.10;10.85;;;;;;;17.66;61.56;100042.28;10152546;29;20045;-73
2023/05/21 04:25:17;;;;;;;20.45;11.55;;;;;;;17.71;61.94;100047.03;10182296;23;20108;-73
2023/05/21 04:30:18;;;;;;;20.23;11.18;;;;;;;17.81;61.44;100050.88;10122701;29;20209;-72
2023/05/21 04:35:20;;;;;;;16.13;10.48;;;;;;;17.84;61.73;100052.31;10136210;29;20100;-72
2023/05/21 04:40:23;;;;;;;16.00;10.63;;;;;;;17.84;61.84;100060.47;10136665;29;20037;-72
2023/05/21 04:45:24;;;;;;;15.52;10.93;;;;;;;17.89;61.79;100060.63;10146564;29;20084;-73
2023/05/21 04:50:25;;;;;;;18.33;10.40;;;;;;;17.97;61.58;100057.56;10187987;23;20064;-72
2023/05/21 04:55:27;;;;;;;19.25;11.25;;;;;;;18.03;61.21;100056.63;10121832;29;20036;-72
2023/05/21 05:00:29;;;;;;;18.15;10.93;;;;;;;18.06;61.50;100051.78;10136111;29;20142;-72
2023/05/21 05:05:30;;;;;;;15.35;11.40;;;;;;;18.14;61.54;100056.91;10121273;29;20060;-72
2023/05/21 05:10:32;;;;;;;15.57;10.38;;;;;;;18.23;61.07;100060.94;10130367;29;20049;-72
2023/05/21 05:55:25;;;;;;;15.20;10.10;;;;;;;19.20;60.01;100049.59;11101836;23;20071;-75
2023/05/21 06:00:29;;;;;;;12.77;9.95;;;;;;;19.25;60.03;100050.75;10123439;29;20049;-73
2023/05/21 06:05:30;;;;;;;14.05;9.93;;;;;;;19.34;59.92;100052.88;10139373;29;20074;-73
2023/05/21 06:10:32;;;;;;;16.73;9.60;;;;;;;19.50;59.49;100056.72;10149933;29;20068;-72
2023/05/21 06:15:33;;;;;;;16.23;10.57;;;;;;;19.55;59.64;100043.22;10139832;29;20059;-73
2023/05/21 06:20:35;;;;;;;15.20;10.00;;;;;;;19.66;59.40;100052.41;10136243;29;20052;-73
2023/05/21 06:25:39;;;;;;;15.27;9.80;;;;;;;19.76;59.26;100060.00;10139451;29;20052;-73
2023/05/21 06:30:41;;;;;;;13.63;10.38;;;;;;;19.83;59.23;100052.50;10139296;29;20059;-73
2023/05/21 06:35:42;;;;;;;18.48;9.48;;;;;;;19.99;58.72;100056.31;10127021;29;20052;-73
2023/05/21 06:40:46;;;;;;;11.35;9.10;;;;;;;20.01;58.68;100051.44;10146944;29;20108;-73
2023/05/21 06:45:47;;;;;;;13.73;8.95;;;;;;;20.14;58.30;100042.09;10140737;29;20060;-73
2023/05/21 06:50:49;;;;;;;13.93;9.57;;;;;;;20.26;58.19;100044.75;10116789;29;20053;-72
2023/05/21 06:55:52;;;;;;;12.15;9.10;;;;;;;20.37;57.88;100050.16;10079070;29;20139;-73
2023/05/21 07:00:54;;;;;;;11.55;9.35;;;;;;;20.45;57.90;100056.28;10103849;29;20049;-73
2023/05/21 07:05:58;;;;;;;13.32;8.65;;;;;;;20.57;57.37;100055.09;10121943;29;20424;-73
2023/05/21 07:11:00;;;;;;;12.63;9.30;;;;;;;20.67;57.25;100051.72;10124280;29;20072;-73
2023/05/21 07:16:01;;;;;;;13.32;9.05;;;;;;;20.80;56.76;100045.09;10117519;29;20051;-74
2023/05/21 07:21:03;;;;;;;11.20;8.52;;;;;;;21.01;56.47;100054.41;10131266;29;20048;-72
2023/05/21 07:26:04;;;;;;;10.65;8.88;;;;;;;21.28;55.69;100053.66;10128315;29;20052;-73
2023/05/21 07:31:07;;;;;;;12.32;8.13;;;;;;;21.52;55.13;100048.78;10129478;29;20536;-73
2023/05/21 07:36:08;;;;;;;16.15;9.82;;;;;;;21.77;54.70;100045.50;10133089;29;20052;-73
2023/05/21 07:41:10;;;;;;;11.43;8.73;;;;;;;21.99;54.35;100040.78;10141271;29;20045;-73
2023/05/21 07:46:11;;;;;;;11.70;8.20;;;;;;;22.16;54.04;100045.34;10156254;29;20036;-73
2023/05/21 07:51:13;;;;;;;11.57;9.05;;;;;;;22.32;53.44;100036.19;10131635;29;20068;-73
2023/05/21 07:56:14;;;;;;;14.00;8.75;;;;;;;22.35;53.41;100029.34;10115834;29;20053;-73
2023/05/21 08:01:16;;;;;;;12.77;8.60;;;;;;;22.52;52.60;100031.97;10112032;29;20117;-73
2023/05/21 08:06:17;;;;;;;11.27;8.48;;;;;;;22.58;52.79;100028.16;10110129;29;20061;-72
2023/05/21 08:11:20;;;;;;;11.48;8.50;;;;;;;22.67;52.41;100036.69;10100662;29;20057;-73
2023/05/21 08:16:22;;;;;;;11.23;7.85;;;;;;;22.82;52.17;100045.03;10188653;24;20052;-73
2023/05/21 08:21:23;;;;;;;11.13;8.55;;;;;;;22.94;51.63;100037.41;10146061;29;20894;-73
2023/05/21 08:26:25;;;;;;;11.30;8.10;;;;;;;23.00;51.71;100034.72;10144668;29;20064;-73
2023/05/21 08:31:26;;;;;;;9.82;8.20;;;;;;;23.00;51.53;100042.94;10133554;29;20049;-73
2023/05/21 08:36:28;;;;;;;16.73;9.05;;;;;;;23.15;51.38;100046.59;10145125;29;20057;-73
2023/05/21 08:41:32;;;;;;;9.23;8.10;;;;;;;23.24;51.21;100032.38;10121150;29;20400;-73
2023/05/21 08:46:34;;;;;;;10.38;7.63;;;;;;;23.25;51.19;100032.13;10146477;29;20427;-73
2023/05/21 08:51:37;;;;;;;10.70;8.30;;;;;;;23.27;50.93;100035.41;10125829;29;20052;-73
2023/05/21 08:56:44;;;;;;;10.88;8.35;;;;;;;23.37;50.65;100029.16;10143178;29;20052;-74
2023/05/21 09:01:48;;;;;;;9.07;7.25;;;;;;;23.51;50.38;100023.97;10132329;29;20055;-72
2023/05/21 09:06:50;;;;;;;11.90;7.88;;;;;;;23.47;50.46;100023.69;10143868;29;20112;-73
2023/05/21 09:11:52;;;;;;;10.13;8.43;;;;;;;23.43;50.56;100027.25;10127567;29;20059;-72
2023/05/21 09:16:54;;;;;;;13.98;7.78;;;;;;;23.51;50.58;100026.72;10140197;29;20067;-73
2023/05/21 09:22:01;;;;;;;8.98;7.78;;;;;;;23.86;50.02;100023.25;10144041;29;20052;-73
2023/05/21 09:27:06;;;;;;;9.88;7.90;;;;;;;24.10;50.01;100017.25;10139306;29;20056;-76
2023/05/21 09:32:08;;;;;;;11.07;8.50;;;;;;;24.53;49.49;100009.56;10108979;29;20045;-75
2023/05/21 09:37:10;;;;;;;9.82;7.85;;;;;;;24.83;48.73;100011.41;10148363;29;20053;-76
2023/05/21 09:42:28;;;;;;;9.73;7.00;;;;;;;25.11;47.85;100012.69;10131023;29;20453;-76
2023/05/21 09:47:30;;;;;;;9.75;7.82;;;;;;;25.39;47.29;100012.31;10139496;29;20053;-76
2023/05/21 09:52:35;;;;;;;10.98;7.65;;;;;;;25.65;46.85;100005.56;10137543;29;20144;-75
2023/05/21 09:57:44;;;;;;;8.32;7.40;;;;;;;25.78;46.87;100000.53;10132844;29;20056;-76
2023/05/21 10:02:49;;;;;;;10.35;7.43;;;;;;;26.11;46.27;99997.00;10133292;29;20072;-78
2023/05/21 10:07:53;;;;;;;8.13;7.18;;;;;;;26.37;45.74;99988.50;10146770;29;20059;-76
2023/05/21 10:12:59;;;;;;;8.30;6.88;;;;;;;26.75;45.39;99983.16;10126977;29;20048;-76
2023/05/21 10:18:02;;;;;;;8.77;7.18;;;;;;;26.91;44.61;99973.59;10141054;29;20060;-77
2023/05/21 10:23:05;;;;;;;7.60;6.80;;;;;;;27.00;44.48;99976.53;10126014;29;20052;-76
2023/05/21 10:28:06;;;;;;;8.68;7.38;;;;;;;27.23;44.47;99974.88;10118101;29;20391;-76
2023/05/21 10:33:08;;;;;;;8.05;7.25;;;;;;;27.43;43.83;99965.50;10142900;29;20067;-77
2023/05/21 10:38:12;;;;;;;12.80;6.68;;;;;;;27.61;43.50;99965.81;10124240;29;20040;-76
2023/05/21 10:43:35;;;;;;;8.25;6.93;;;;;;;27.95;42.39;99960.03;10129931;29;20063;-76
2023/05/21 10:48:39;;;;;;;8.35;6.70;;;;;;;28.23;42.04;99949.06;10142506;29;20052;-76
2023/05/21 10:54:07;;;;;;;8.77;6.82;;;;;;;28.42;41.98;99951.78;10138982;29;20504;-76
2023/05/21 10:59:46;;;;;;;7.68;6.50;;;;;;;28.72;41.48;99944.03;10121851;29;20500;-76
2023/05/21 11:04:57;;;;;;;10.90;7.03;;;;;;;28.75;40.70;99949.75;10145715;29;20048;-77
2023/05/21 11:10:34;;;;;;;7.50;5.85;;;;;;;28.81;40.40;99954.06;10124572;29;20143;-76
2023/05/21 11:15:57;;;;;;;6.97;5.78;;;;;;;29.24;39.29;99956.50;10131061;29;20056;-75
2023/05/21 11:21:09;;;;;;;6.85;5.82;;;;;;;29.32;38.88;99952.16;10122099;29;20148;-75
2023/05/21 11:26:10;;;;;;;7.30;5.35;;;;;;;29.66;38.05;99946.13;10105940;29;21000;-76
2023/05/21 11:31:26;;;;;;;10.40;5.35;;;;;;;29.94;36.80;99936.88;10132769;29;24784;-74
2023/05/21 11:36:27;;;;;;;7.07;5.15;;;;;;;30.20;35.92;99943.41;10125799;29;20080;-76
2023/05/21 11:41:29;;;;;;;8.00;5.43;;;;;;;30.41;35.42;99937.34;10136334;29;20419;-76
2023/05/21 11:46:32;;;;;;;5.78;5.10;;;;;;;30.50;34.20;99929.06;10124550;29;20052;-76
2023/05/21 11:51:39;;;;;;;7.03;4.75;;;;;;;30.69;34.07;99937.13;10136959;29;20139;-76
2023/05/21 11:56:40;;;;;;;5.88;5.15;;;;;;;30.89;33.27;99933.00;10131828;29;20060;-77
2023/05/21 12:01:43;;;;;;;8.57;4.72;;;;;;;30.84;32.87;99937.50;10147235;29;20085;-76
2023/05/21 12:06:44;;;;;;;6.07;4.55;;;;;;;31.12;32.36;99934.47;10145417;29;20067;-76
2023/05/21 12:11:46;;;;;;;5.63;4.25;;;;;;;31.49;32.27;99937.00;10147177;29;20143;-76
2023/05/21 12:16:47;;;;;;;7.47;4.93;;;;;;;32.10;31.26;99925.84;10115249;29;20059;-76
2023/05/21 12:21:49;;;;;;;6.28;5.00;;;;;;;32.22;31.42;99926.78;10131415;29;20131;-77
2023/05/21 12:26:51;;;;;;;6.55;5.00;;;;;;;32.25;31.08;99924.47;10146938;29;20044;-77
2023/05/21 12:31:52;;;;;;;4.55;4.13;;;;;;;32.72;29.83;99924.47;10129583;29;20143;-77
2023/05/21 12:36:54;;;;;;;5.93;4.80;;;;;;;32.97;30.62;99929.06;10141573;29;20128;-77
2023/05/21 12:41:55;;;;;;;5.28;4.70;;;;;;;33.27;28.91;99923.50;10123985;29;20059;-77
2023/05/21 12:46:58;;;;;;;6.72;4.60;;;;;;;33.29;29.29;99918.38;10143270;29;20056;-77
2023/05/21 12:52:04;;;;;;;4.45;4.05;;;;;;;33.51;28.26;99919.19;10144241;29;20059;-78
2023/05/21 12:57:14;;;;;;;6.22;5.40;;;;;;;33.72;28.44;99925.59;10150676;29;20131;-78
2023/05/21 13:02:19;;;;;;;6.50;4.50;;;;;;;34.02;28.13;99921.88;10139477;29;20056;-65
2023/05/21 13:07:20;;;;;;;;;;;;;;;34.17;28.57;99916.47;10132208;29;20060;-63
2023/05/21 13:12:23;;;;;;;4.90;4.40;;;;;;;34.22;27.72;99915.41;10133944;29;20279;-70
2023/05/21 13:17:26;;;;;;;4.72;4.05;;;;;;;34.71;26.88;99915.47;10134942;29;20112;-62
2023/05/21 13:22:28;;;;;;;5.38;4.10;;;;;;;34.66;25.82;99912.09;10143363;29;20052;-62
2023/05/21 13:27:29;;;;;;;8.05;4.93;;;;;;;34.32;26.26;99905.78;10143430;29;20518;-62
2023/05/21 13:32:31;;;;;;;8.65;5.28;;;;;;;34.17;26.64;99902.50;10140999;29;20060;-60
2023/05/21 13:37:35;;;;;;;6.70;4.75;;;;;;;34.49;26.96;99899.19;10129718;29;20059;-64
2023/05/21 13:42:37;;;;;;;6.40;4.70;;;;;;;34.81;26.50;99902.22;10139924;29;20051;-63
2023/05/21 13:47:39;;;;;;;5.75;4.40;;;;;;;35.13;26.03;99895.66;10141935;29;20083;-64
2023/05/21 13:52:41;;;;;;;4.63;3.92;;;;;;;35.10;24.66;99901.94;10141127;29;20052;-63
2023/05/21 13:57:43;;;;;;;4.30;4.00;;;;;;;34.92;25.37;99897.78;10139859;29;20567;-63
2023/05/21 14:02:44;;;;;;;4.85;4.40;;;;;;;34.49;24.77;99896.38;10136961;29;20063;-63
2023/05/21 14:07:47;;;;;;;6.55;4.25;;;;;;;34.55;24.39;99893.00;10139372;29;20068;-63
2023/05/21 14:12:48;;;;;;;4.57;3.58;;;;;;;34.54;25.14;99888.59;10136981;29;20049;-62
2023/05/21 14:17:51;;;;;;;4.70;4.13;;;;;;;34.28;24.88;99891.72;10136300;29;20045;-62
2023/05/21 14:22:52;;;;;;;4.95;4.60;;;;;;;33.98;25.68;99883.50;10137978;29;20131;-64
2023/05/21 14:27:53;;;;;;;4.97;4.57;;;;;;;33.99;25.40;99887.13;10137865;29;20048;-63
2023/05/21 14:32:55;;;;;;;5.35;4.70;;;;;;;34.03;25.26;99887.25;10137262;29;20048;-62
2023/05/21 14:37:58;;;;;;;9.32;4.70;;;;;;;34.17;25.73;99879.38;10139498;29;20053;-64
2023/05/21 14:43:00;;;;;;;4.68;4.10;;;;;;;34.07;25.17;99879.81;10145494;29;20048;-63
2023/05/21 14:48:06;;;;;;;6.10;4.60;;;;;;;33.99;25.41;99873.16;10145685;29;20292;-62
2023/05/21 14:53:10;;;;;;;6.38;4.43;;;;;;;34.00;25.13;99876.75;10143324;29;20060;-63
2023/05/21 14:58:12;;;;;;;5.45;4.05;;;;;;;34.03;25.63;99879.69;10139569;29;20496;-62
2023/05/21 15:03:13;;;;;;;4.57;4.18;;;;;;;34.16;25.75;99873.00;10142496;29;20415;-61
2023/05/21 15:08:14;;;;;;;4.53;4.03;;;;;;;34.13;25.41;99875.63;10141867;29;20449;-62
2023/05/21 15:13:16;;;;;;;7.03;5.25;;;;;;;34.12;25.37;99871.19;10140424;29;20044;-61
2023/05/21 15:18:17;;;;;;;7.85;4.30;;;;;;;34.13;25.47;99872.84;10145947;29;20071;-62
2023/05/21 15:23:19;;;;;;;3.95;3.60;;;;;;;34.11;24.67;99870.38;10137932;29;20052;-63
2023/05/21 15:28:21;;;;;;;5.85;4.35;;;;;;;34.00;25.45;99871.19;10141173;29;20425;-63
2023/05/21 15:33:23;;;;;;;5.18;4.65;;;;;;;33.99;25.54;99867.59;10138475;29;20059;-63
2023/05/21 15:38:24;;;;;;;4.38;3.97;;;;;;;33.93;25.77;99857.81;10138958;29;20107;-63
2023/05/21 15:43:27;;;;;;;7.60;4.43;;;;;;;33.76;26.02;99858.81;10139862;29;20549;-61
2023/05/21 15:48:28;;;;;;;7.90;4.35;;;;;;;33.61;25.93;99859.44;10136536;29;20056;-59
2023/05/21 15:53:30;;;;;;;6.38;4.38;;;;;;;33.68;26.10;99845.78;10138371;29;20056;-60
2023/05/21 15:58:31;;;;;;;6.22;4.18;;;;;;;33.74;26.21;99844.41;10126070;29;20060;-62
2023/05/21 16:03:32;;;;;;;7.85;4.40;;;;;;;34.04;26.08;99844.22;10140090;29;20049;-65
2023/05/21 16:08:34;;;;;;;4.68;4.25;;;;;;;34.20;25.27;99839.59;10139708;29;20471;-63
2023/05/21 16:13:35;;;;;;;5.57;4.30;;;;;;;34.28;25.17;99840.66;10138141;29;20055;-62
2023/05/21 16:18:37;;;;;;;5.35;4.65;;;;;;;34.56;25.43;99847.19;10143143;29;20794;-61
2023/05/21 16:23:39;;;;;;;4.47;4.05;;;;;;;34.80;25.19;99844.72;10134832;29;20056;-62
2023/05/21 16:28:40;;;;;;;6.72;4.43;;;;;;;34.95;24.88;99844.81;10137520;29;20049;-60
2023/05/21 16:33:42;;;;;;;4.70;4.05;;;;;;;35.16;24.38;99838.25;10132687;29;20068;-62
2023/05/21 16:38:43;;;;;;;7.28;4.25;;;;;;;35.30;23.63;99847.03;10132701;29;20406;-61
2023/05/21 16:43:45;;;;;;;4.75;3.83;;;;;;;35.41;23.83;99846.53;10130670;29;20528;-61
2023/05/21 16:48:46;;;;;;;4.40;4.00;;;;;;;35.29;23.62;99842.66;10144891;29;20056;-60
2023/05/21 16:53:47;;;;;;;4.95;3.50;;;;;;;35.25;23.52;99844.53;10142390;29;20055;-62
2023/05/21 16:58:49;;;;;;;4.65;4.25;;;;;;;35.20;23.98;99844.75;10147121;29;20113;-62
2023/05/21 17:03:50;;;;;;;6.03;4.03;;;;;;;35.16;23.99;99841.06;10140942;29;20040;-59
2023/05/21 17:08:52;;;;;;;6.05;3.88;;;;;;;35.05;24.08;99846.28;10142439;29;20056;-61
2023/05/21 17:13:54;;;;;;;5.57;4.70;;;;;;;35.01;24.19;99850.16;10142605;29;20056;-60
2023/05/21 17:18:55;;;;;;;4.43;4.03;;;;;;;34.90;23.92;99849.84;10144934;29;20071;-64
2023/05/21 17:23:56;;;;;;;4.13;3.75;;;;;;;34.63;24.62;99846.56;10144734;29;20139;-63
2023/05/21 17:28:58;;;;;;;4.90;3.70;;;;;;;34.44;24.82;99843.56;10144685;29;20056;-61
2023/05/21 17:33:59;;;;;;;9.25;6.13;;;;;;;34.09;25.41;99850.41;10151273;29;20061;-64
2023/05/21 17:39:01;;;;;;;5.05;4.55;;;;;;;33.89;25.96;99843.75;10143066;29;20044;-64
2023/05/21 17:44:02;;;;;;;9.27;4.45;;;;;;;33.63;25.62;99852.41;10144336;29;20084;-63
2023/05/21 17:49:06;;;;;;;4.35;3.63;;;;;;;33.51;26.25;99852.31;10148188;29;20049;-63
2023/05/21 17:54:07;;;;;;;6.63;4.38;;;;;;;33.34;26.62;99861.66;10147117;29;20059;-68
2023/05/21 17:59:09;;;;;;;5.88;4.15;;;;;;;33.22;26.31;99856.84;10137049;29;20048;-67
2023/05/21 18:04:11;;;;;;;6.75;4.85;;;;;;;32.91;26.70;99860.00;10147780;29;20052;-67
2023/05/21 18:09:14;;;;;;;4.90;4.13;;;;;;;32.52;27.27;99857.25;10154982;29;20119;-65
2023/05/21 18:14:15;;;;;;;6.78;3.97;;;;;;;32.12;27.99;99854.81;10144477;29;20067;-66
2023/05/21 18:19:17;;;;;;;6.10;4.78;;;;;;;31.73;28.54;99856.69;10157090;29;20056;-66
2023/05/21 18:24:18;;;;;;;6.32;4.35;;;;;;;31.33;29.17;99850.53;10145249;29;20421;-67
2023/05/21 18:29:20;;;;;;;6.60;4.80;;;;;;;30.88;29.77;99854.41;10143905;29;20067;-67
2023/05/21 18:34:21;;;;;;;10.48;6.47;;;;;;;30.55;30.71;99854.84;10141302;29;20059;-67
2023/05/21 18:39:23;;;;;;;7.00;4.40;;;;;;;30.19;31.91;99847.47;10145408;29;20052;-67
2023/05/21 18:44:26;;;;;;;12.70;5.88;;;;;;;29.87;32.27;99856.16;10146864;29;20060;-66
2023/05/21 18:49:32;;;;;;;5.53;4.55;;;;;;;29.54;33.23;99848.88;10142071;29;20154;-64
2023/05/21 18:54:34;;;;;;;8.13;5.55;;;;;;;29.23;33.40;99862.69;10142475;29;20400;-65
2023/05/21 18:59:37;;;;;;;5.40;4.90;;;;;;;28.82;34.28;99856.09;10144316;29;20451;-65
2023/05/21 19:04:38;;;;;;;7.13;4.72;;;;;;;28.58;35.19;99858.28;10148500;29;20050;-65
2023/05/21 19:09:40;;;;;;;9.50;5.15;;;;;;;28.22;36.17;99859.78;10125849;29;20127;-65
2023/05/21 19:14:43;;;;;;;8.65;6.57;;;;;;;27.92;36.80;99865.88;10120091;29;20056;-65
2023/05/21 19:19:45;;;;;;;7.10;5.18;;;;;;;27.46;37.28;99854.47;10147370;29;20040;-67
2023/05/21 19:24:47;;;;;;;11.38;6.25;;;;;;;27.07;38.27;99863.03;10137509;29;20044;-66
2023/05/21 19:29:48;;;;;;;8.80;6.78;;;;;;;26.82;38.62;99869.75;10136679;29;20051;-67
2023/05/21 19:34:51;;;;;;;7.50;5.88;;;;;;;26.50;39.20;99868.44;10137239;29;20059;-66
2023/05/21 19:39:52;;;;;;;6.65;4.90;;;;;;;26.12;39.75;99871.88;10139867;29;20087;-66
2023/05/21 19:44:53;;;;;;;11.38;5.20;;;;;;;25.84;40.23;99881.78;10142406;29;20052;-65
2023/05/21 19:49:55;;;;;;;8.45;5.47;;;;;;;25.70;40.51;99886.31;10141401;29;20059;-66
2023/05/21 19:55:03;;;;;;;6.95;5.68;;;;;;;25.50;41.12;99882.63;10154110;29;20056;-66
2023/05/21 20:00:09;;;;;;;8.63;5.70;;;;;;;25.33;41.47;99882.19;10142552;29;20044;-67
2023/05/21 20:05:10;;;;;;;6.37;4.97;;;;;;;24.99;42.04;99882.91;10146791;29;20063;-78
2023/05/21 20:10:12;;;;;;;8.23;5.43;;;;;;;24.81;42.54;99892.63;10127923;29;20404;-79
2023/05/21 20:15:13;;;;;;;10.23;5.60;;;;;;;24.76;42.66;99887.16;10128191;29;20066;-77
2023/05/21 20:20:15;;;;;;;7.03;5.43;;;;;;;24.60;42.87;99893.81;10130999;29;20067;-77
2023/05/21 20:25:17;;;;;;;7.55;5.45;;;;;;;24.51;43.56;99893.59;10149851;29;20107;-69
2023/05/21 20:30:18;;;;;;;8.00;5.13;;;;;;;24.32;43.20;99888.66;10154352;29;20048;-80
2023/05/21 20:35:20;;;;;;;8.18;5.05;;;;;;;24.15;43.48;99896.38;10142652;29;20064;-75
2023/05/21 20:40:21;;;;;;;7.78;5.57;;;;;;;23.84;44.14;99895.63;10151539;29;20052;-77
2023/05/21 20:45:22;;;;;;;10.02;6.05;;;;;;;23.81;44.00;99890.66;10152290;29;20055;-77
2023/05/21 20:50:27;;;;;;;10.95;6.07;;;;;;;23.71;43.97;99886.78;10147557;29;20064;-81
2023/05/21 20:55:33;;;;;;;7.65;6.28;;;;;;;23.71;44.40;99889.53;10149227;29;20056;-78
2023/05/21 21:00:37;;;;;;;10.43;7.18;;;;;;;23.66;45.37;99886.81;10146208;29;20143;-77
2023/05/21 21:05:39;;;;;;;10.73;7.63;;;;;;;23.56;45.89;99887.63;10135656;29;20112;-65
2023/05/21 21:10:41;;;;;;;10.65;7.10;;;;;;;23.44;46.61;99888.97;10147048;29;20052;-64
2023/05/21 21:15:42;;;;;;;13.05;6.97;;;;;;;23.35;46.93;99894.19;10147020;29;20059;-63
2023/05/21 21:20:48;;;;;;;11.85;7.60;;;;;;;23.29;47.04;99889.78;10143895;29;20059;-64
2023/05/21 21:25:50;;;;;;;11.32;8.32;;;;;;;23.19;47.50;99893.31;10147351;29;20393;-64
2023/05/21 21:30:52;;;;;;;10.82;7.45;;;;;;;23.09;48.13;99896.88;10147760;29;20097;-65
2023/05/21 21:35:53;;;;;;;15.25;8.85;;;;;;;22.98;48.59;99903.38;10140947;29;20044;-62
2023/05/21 21:40:54;;;;;;;10.10;8.32;;;;;;;22.82;48.86;99905.25;10139625;29;20052;-64
2023/05/21 21:45:56;;;;;;;11.15;8.75;;;;;;;22.71;49.08;99893.44;10143214;29;20057;-62
2023/05/21 21:50:57;;;;;;;10.52;8.85;;;;;;;22.63;49.41;99901.31;10143582;29;20045;-64
2023/05/21 21:55:59;;;;;;;10.38;9.20;;;;;;;22.46;49.77;99907.81;10145867;29;20056;-62
2023/05/21 22:01:01;;;;;;;11.48;8.63;;;;;;;22.31;49.92;99900.34;10142391;29;20052;-63
2023/05/21 22:06:02;;;;;;;11.15;9.05;;;;;;;22.23;50.46;99898.06;10142979;29;20153;-64
2023/05/21 22:11:04;;;;;;;12.52;8.57;;;;;;;22.16;50.95;99894.75;10145000;29;20051;-64
2023/05/21 22:16:06;;;;;;;12.45;9.18;;;;;;;22.04;51.15;99900.44;10124132;29;20135;-65
2023/05/21 22:21:12;;;;;;;16.85;12.25;;;;;;;21.98;51.61;99899.56;10145356;29;20500;-63
2023/05/21 22:26:14;;;;;;;24.13;14.40;;;;;;;21.87;51.92;99897.00;10142611;29;20143;-64
2023/05/21 22:31:16;;;;;;;22.65;15.57;;;;;;;21.77;52.89;99897.75;10141315;29;20048;-65
2023/05/21 22:36:17;;;;;;;21.77;14.57;;;;;;;21.66;53.09;99901.47;10139735;29;20059;-65
2023/05/21 22:41:19;;;;;;;22.75;14.70;;;;;;;21.38;53.98;99906.94;10144148;29;20048;-63
2023/05/21 22:46:20;;;;;;;20.17;14.18;;;;;;;21.27;54.87;99902.47;10136520;29;20052;-61
2023/05/21 22:51:22;;;;;;;18.95;12.77;;;;;;;21.22;55.22;99905.13;10125308;29;20063;-64
2023/05/21 22:56:23;;;;;;;15.05;11.65;;;;;;;21.23;55.39;99909.53;10138489;29;20056;-63
2023/05/21 23:01:25;;;;;;;14.88;11.38;;;;;;;21.18;55.55;99913.03;10143214;29;20052;-62
2023/05/21 23:06:26;;;;;;;15.98;12.07;;;;;;;21.10;55.56;99910.75;10141882;29;20059;-63
2023/05/21 23:11:28;;;;;;;16.67;11.45;;;;;;;21.08;56.02;99912.09;10141876;29;20061;-66
2023/05/21 23:16:31;;;;;;;18.50;12.75;;;;;;;21.06;55.74;99917.00;10143037;29;20090;-64
2023/05/21 23:21:32;;;;;;;15.20;11.10;;;;;;;21.07;55.72;99907.69;10126804;29;20056;-63
2023/05/21 23:26:34;;;;;;;15.75;10.50;;;;;;;21.06;56.03;99904.16;10141523;29;20047;-63
2023/05/21 23:31:35;;;;;;;13.88;10.10;;;;;;;21.02;56.11;99907.66;10146844;29;20041;-64
2023/05/21 23:36:37;;;;;;;18.02;11.20;;;;;;;20.98;56.37;99913.63;10140875;29;20235;-63
2023/05/21 23:41:38;;;;;;;11.15;9.80;;;;;;;20.96;56.11;99915.78;10138428;29;20055;-63
2023/05/21 23:46:43;;;;;;;14.10;10.32;;;;;;;20.91;56.45;99914.91;10140774;29;20049;-64
2023/05/21 23:51:45;;;;;;;17.83;11.43;;;;;;;20.70;57.21;99922.03;10140829;29;20059;-64